Time;durP1;ratioP1;P1;durP2;ratioP2;P2;SDS_P1;SDS_P2;PMS_P1;PMS_P2;Temp;Humidity;BMP_temperature;BMP_pressure;BME280_temperature;BME280_humidity;BME280_pressure;Samples;Min_cycle;Max_cycle;Signal;HPM_P1;HPM_P2
2024/05/03 00:01:24;;;;;;;59.65;27.35;;;;;;;;;;5457624;27;20006;-79
2024/05/03 00:03:54;;;;;;;63.03;27.13;;;;;;;;;;5431675;27;20002;-80
2024/05/03 00:06:25;;;;;;;54.20;24.80;;;;;;;;;;5458440;27;19998;-80
2024/05/03 00:08:55;;;;;;;64.97;27.10;;;;;;;;;;5458403;27;19994;-80
2024/05/03 00:11:25;;;;;;;57.60;25.80;;;;;;;;;;5457888;27;20014;-80
2024/05/03 00:13:55;;;;;;;71.28;29.63;;;;;;;;;;5457886;27;20065;-80
2024/05/03 00:16:25;;;;;;;63.72;28.05;;;;;;;;;;5458376;27;19998;-80
2024/05/03 00:18:56;;;;;;;66.72;28.67;;;;;;;;;;5458838;27;20014;-79
2024/05/03 00:21:26;;;;;;;66.72;27.60;;;;;;;;;;5457989;27;20006;-79
2024/05/03 00:23:56;;;;;;;62.58;29.00;;;;;;;;;;5460226;27;20003;-80
2024/05/03 00:26:27;;;;;;;77.75;29.23;;;;;;;;;;5461216;27;20009;-80
2024/05/03 00:28:57;;;;;;;72.38;29.63;;;;;;;;;;5460716;27;19990;-79
2024/05/03 00:31:27;;;;;;;66.18;28.67;;;;;;;;;;5460575;27;20348;-80
2024/05/03 00:33:57;;;;;;;61.72;28.10;;;;;;;;;;5459114;27;20009;-80
2024/05/03 00:36:27;;;;;;;67.03;28.42;;;;;;;;;;5460313;27;20017;-80
2024/05/03 00:38:58;;;;;;;64.13;26.20;;;;;;;;;;5435189;27;20012;-79
2024/05/03 00:41:28;;;;;;;74.00;28.23;;;;;;;;;;5460943;27;19998;-80
2024/05/03 00:43:58;;;;;;;67.05;29.15;;;;;;;;;;5461925;27;19998;-80
2024/05/03 00:46:28;;;;;;;66.20;28.45;;;;;;;;;;5461552;27;20018;-80
2024/05/03 00:48:59;;;;;;;61.35;27.77;;;;;;;;;;5462129;27;20003;-81
2024/05/03 00:51:30;;;;;;;74.93;29.80;;;;;;;;;;5461788;27;19999;-80
2024/05/03 00:54:00;;;;;;;55.85;24.40;;;;;;;;;;5461826;27;20017;-80
2024/05/03 00:56:31;;;;;;;46.40;23.77;;;;;;;;;;5460865;27;20079;-81
2024/05/03 00:59:02;;;;;;;38.00;22.67;;;;;;;;;;5461689;27;20010;-80
2024/05/03 01:01:32;;;;;;;48.38;25.30;;;;;;;;;;5461293;27;20017;-81
2024/05/03 01:04:03;;;;;;;47.60;25.35;;;;;;;;;;5461236;27;19998;-81
2024/05/03 01:06:33;;;;;;;41.00;24.05;;;;;;;;;;5461157;27;20006;-81
2024/05/03 01:09:03;;;;;;;43.88;25.10;;;;;;;;;;5461868;27;20437;-81
2024/05/03 01:11:33;;;;;;;39.88;23.20;;;;;;;;;;5461286;27;20093;-81
2024/05/03 01:14:05;;;;;;;35.40;21.85;;;;;;;;;;5445339;27;20002;-81
2024/05/03 01:16:35;;;;;;;39.30;23.50;;;;;;;;;;5457560;27;20010;-81
2024/05/03 01:19:07;;;;;;;34.65;21.55;;;;;;;;;;5461899;27;20069;-81
2024/05/03 01:21:41;;;;;;;34.73;21.60;;;;;;;;;;5462678;27;20002;-81
2024/05/03 01:24:11;;;;;;;37.58;23.20;;;;;;;;;;5448800;27;20453;-81
2024/05/03 01:26:41;;;;;;;38.28;22.73;;;;;;;;;;5465196;27;20072;-82
2024/05/03 01:29:11;;;;;;;37.20;22.20;;;;;;;;;;5449076;27;19995;-82
2024/05/03 01:31:42;;;;;;;27.10;18.95;;;;;;;;;;5448930;27;20072;-81
2024/05/03 01:34:12;;;;;;;30.65;19.60;;;;;;;;;;5466121;27;19998;-82
2024/05/03 01:36:42;;;;;;;36.30;21.45;;;;;;;;;;5466178;27;20014;-82
2024/05/03 01:39:12;;;;;;;28.27;19.65;;;;;;;;;;5467689;27;20006;-82
2024/05/03 01:41:43;;;;;;;27.25;18.63;;;;;;;;;;5465665;27;20440;-82
2024/05/03 01:44:13;;;;;;;25.77;17.70;;;;;;;;;;5465063;27;20437;-82
2024/05/03 01:46:43;;;;;;;26.25;17.90;;;;;;;;;;5465278;27;20002;-82
2024/05/03 01:49:13;;;;;;;25.80;17.95;;;;;;;;;;5464867;27;19990;-83
2024/05/03 01:51:44;;;;;;;22.38;16.27;;;;;;;;;;5466341;27;19999;-83
2024/05/03 01:54:14;;;;;;;27.70;15.93;;;;;;;;;;5465250;27;19994;-82
2024/05/03 01:56:44;;;;;;;20.30;14.63;;;;;;;;;;5464675;27;20041;-83
2024/05/03 01:59:14;;;;;;;23.85;16.55;;;;;;;;;;5465778;27;20495;-83
2024/05/03 02:01:45;;;;;;;20.00;14.57;;;;;;;;;;5464955;27;19999;-83
2024/05/03 02:04:15;;;;;;;23.77;15.05;;;;;;;;;;5465637;27;20026;-82
2024/05/03 02:06:45;;;;;;;21.73;14.98;;;;;;;;;;5464372;27;20014;-83
2024/05/03 02:09:16;;;;;;;19.10;14.00;;;;;;;;;;5450005;27;20012;-83
2024/05/03 02:11:46;;;;;;;18.30;12.82;;;;;;;;;;5465386;27;20049;-82
2024/05/03 02:14:16;;;;;;;21.23;13.70;;;;;;;;;;5465080;27;20019;-82
2024/05/03 02:16:46;;;;;;;18.50;12.52;;;;;;;;;;5465257;27;20014;-83
2024/05/03 02:19:16;;;;;;;18.70;12.32;;;;;;;;;;5466188;27;20002;-83
2024/05/03 02:21:47;;;;;;;18.95;12.13;;;;;;;;;;5466306;27;20017;-83
2024/05/03 02:24:17;;;;;;;13.85;11.25;;;;;;;;;;5465634;27;20015;-83
2024/05/03 02:26:47;;;;;;;16.67;11.48;;;;;;;;;;5449184;27;20006;-83
2024/05/03 02:29:17;;;;;;;14.77;11.30;;;;;;;;;;5465266;27;19997;-83
2024/05/03 02:31:48;;;;;;;16.13;10.85;;;;;;;;;;5465676;27;20009;-83
2024/05/03 02:34:18;;;;;;;13.68;10.40;;;;;;;;;;5448216;27;20002;-83
2024/05/03 02:36:48;;;;;;;18.05;12.30;;;;;;;;;;5464965;27;20006;-83
2024/05/03 02:39:18;;;;;;;15.50;10.70;;;;;;;;;;5464816;27;20013;-82
2024/05/03 02:41:49;;;;;;;13.73;10.13;;;;;;;;;;5465202;27;20007;-83
2024/05/03 02:44:19;;;;;;;11.75;9.73;;;;;;;;;;5455352;27;20445;-83
2024/05/03 02:46:49;;;;;;;16.50;10.73;;;;;;;;;;5465005;27;20006;-83
2024/05/03 02:49:19;;;;;;;13.95;10.07;;;;;;;;;;5464881;27;20076;-83
2024/05/03 02:51:56;;;;;;;15.10;10.00;;;;;;;;;;5434852;27;20009;-83
2024/05/03 02:54:26;;;;;;;12.68;9.85;;;;;;;;;;5440037;27;20014;-84
2024/05/03 02:56:56;;;;;;;15.95;10.75;;;;;;;;;;5464404;27;20068;-81
2024/05/03 02:59:27;;;;;;;17.52;11.15;;;;;;;;;;5463773;27;20107;-81
2024/05/03 03:01:57;;;;;;;13.75;9.90;;;;;;;;;;5463211;27;20010;-80
2024/05/03 03:04:27;;;;;;;16.73;11.02;;;;;;;;;;5462534;27;19994;-80
2024/05/03 03:06:57;;;;;;;14.15;10.25;;;;;;;;;;5462208;27;20006;-80
2024/05/03 03:09:27;;;;;;;17.60;11.27;;;;;;;;;;5463372;27;19994;-79
2024/05/03 03:11:58;;;;;;;16.90;11.50;;;;;;;;;;5462076;27;20002;-80
2024/05/03 03:14:28;;;;;;;17.42;12.30;;;;;;;;;;5461863;27;20007;-80
2024/05/03 03:16:58;;;;;;;15.90;11.32;;;;;;;;;;5444768;27;20014;-80
2024/05/03 03:19:28;;;;;;;15.82;11.32;;;;;;;;;;5461952;27;20010;-81
2024/05/03 03:22:00;;;;;;;15.88;11.60;;;;;;;;;;5462710;27;19995;-80
2024/05/03 03:24:31;;;;;;;17.02;11.65;;;;;;;;;;5461727;27;20010;-81
2024/05/03 03:27:03;;;;;;;16.02;10.90;;;;;;;;;;5462420;27;20006;-80
2024/05/03 03:29:35;;;;;;;15.45;10.80;;;;;;;;;;5461985;27;19999;-80
2024/05/03 03:32:06;;;;;;;16.20;11.10;;;;;;;;;;5462437;27;20016;-80
2024/05/03 03:34:36;;;;;;;15.63;10.88;;;;;;;;;;5462070;27;20425;-80
2024/05/03 03:37:06;;;;;;;18.05;11.02;;;;;;;;;;5461798;27;20009;-81
2024/05/03 03:39:37;;;;;;;20.13;11.55;;;;;;;;;;5461699;27;20007;-80
2024/05/03 03:42:07;;;;;;;19.13;11.07;;;;;;;;;;5461402;27;20018;-80
2024/05/03 03:44:38;;;;;;;18.33;11.50;;;;;;;;;;5461165;27;19994;-80
2024/05/03 03:47:08;;;;;;;16.77;11.50;;;;;;;;;;5461577;27;20010;-80
2024/05/03 03:49:38;;;;;;;19.63;12.07;;;;;;;;;;5461146;27;20041;-80
2024/05/03 03:52:08;;;;;;;16.70;10.98;;;;;;;;;;5461503;27;20345;-79
2024/05/03 03:54:39;;;;;;;16.75;10.95;;;;;;;;;;5461086;27;20042;-79
2024/05/03 03:57:09;;;;;;;19.13;11.40;;;;;;;;;;5460952;27;20005;-80
2024/05/03 03:59:39;;;;;;;22.42;12.30;;;;;;;;;;5461487;27;19996;-80
2024/05/03 04:02:09;;;;;;;20.33;12.98;;;;;;;;;;5461491;27;20002;-80
2024/05/03 04:04:39;;;;;;;20.23;12.32;;;;;;;;;;5461672;27;20005;-80
2024/05/03 04:07:12;;;;;;;18.83;12.18;;;;;;;;;;5460911;27;19999;-80
2024/05/03 04:09:43;;;;;;;21.95;12.50;;;;;;;;;;5461006;27;20045;-80
2024/05/03 04:12:13;;;;;;;21.58;12.88;;;;;;;;;;5459746;27;20010;-80
2024/05/03 04:14:43;;;;;;;22.50;13.18;;;;;;;;;;5460167;27;20072;-80
2024/05/03 04:17:13;;;;;;;18.58;12.45;;;;;;;;;;5461379;27;19998;-80
2024/05/03 04:19:44;;;;;;;27.25;13.68;;;;;;;;;;5460687;27;19990;-80
2024/05/03 04:22:14;;;;;;;21.42;12.93;;;;;;;;;;5460430;27;19998;-80
2024/05/03 04:24:44;;;;;;;21.27;12.98;;;;;;;;;;5459387;27;20313;-79
2024/05/03 04:27:14;;;;;;;21.90;13.35;;;;;;;;;;5458652;27;20013;-80
2024/05/03 04:29:44;;;;;;;20.15;12.00;;;;;;;;;;5458932;27;19994;-79
2024/05/03 04:32:15;;;;;;;19.60;12.00;;;;;;;;;;5458280;27;19998;-78
2024/05/03 04:34:45;;;;;;;19.17;12.15;;;;;;;;;;5458274;27;20006;-78
2024/05/03 04:37:15;;;;;;;21.25;12.98;;;;;;;;;;5458788;27;20009;-78
2024/05/03 04:39:45;;;;;;;19.88;13.20;;;;;;;;;;5458545;27;19990;-79
2024/05/03 04:42:15;;;;;;;20.35;13.20;;;;;;;;;;5458353;27;20006;-80
2024/05/03 04:44:46;;;;;;;21.38;13.35;;;;;;;;;;5457755;27;20075;-79
2024/05/03 04:47:17;;;;;;;23.95;13.10;;;;;;;;;;5441738;27;20010;-79
2024/05/03 04:49:47;;;;;;;25.42;13.65;;;;;;;;;;5458139;27;20001;-79
2024/05/03 04:52:17;;;;;;;22.63;13.30;;;;;;;;;;5458066;27;20325;-79
2024/05/03 04:54:48;;;;;;;24.73;13.95;;;;;;;;;;5457730;27;20442;-79
2024/05/03 04:57:18;;;;;;;27.77;14.10;;;;;;;;;;5460402;27;20009;-79
2024/05/03 04:59:49;;;;;;;25.95;13.85;;;;;;;;;;5445302;27;19998;-78
2024/05/03 05:02:19;;;;;;;26.25;14.23;;;;;;;;;;5461282;27;20002;-79
2024/05/03 05:04:50;;;;;;;27.75;15.45;;;;;;;;;;5460566;27;20068;-78
2024/05/03 05:07:23;;;;;;;27.50;14.23;;;;;;;;;;5445120;27;20002;-79
2024/05/03 05:09:57;;;;;;;22.33;12.70;;;;;;;;;;5461668;27;20010;-82
2024/05/03 05:12:28;;;;;;;19.30;11.80;;;;;;;;;;5461668;27;20014;-80
2024/05/03 05:15:00;;;;;;;23.58;12.52;;;;;;;;;;5463017;27;20364;-81
2024/05/03 05:17:30;;;;;;;28.07;12.53;;;;;;;;;;5462506;27;20009;-79
2024/05/03 05:20:03;;;;;;;23.15;11.20;;;;;;;;;;5462274;27;19995;-79
2024/05/03 05:22:33;;;;;;;20.95;10.50;;;;;;;;;;5461603;27;20010;-79
2024/05/03 05:25:03;;;;;;;17.95;9.68;;;;;;;;;;5461589;27;20013;-79
2024/05/03 05:27:34;;;;;;;22.10;9.55;;;;;;;;;;5461306;27;20020;-79
2024/05/03 05:30:04;;;;;;;19.00;8.60;;;;;;;;;;5460064;27;20006;-80
2024/05/03 05:32:35;;;;;;;15.07;7.82;;;;;;;;;;5461214;27;20009;-79
2024/05/03 05:35:05;;;;;;;13.90;8.13;;;;;;;;;;5462437;27;19998;-80
2024/05/03 05:37:37;;;;;;;16.75;8.90;;;;;;;;;;5447507;27;20014;-80
2024/05/03 05:40:09;;;;;;;25.50;8.35;;;;;;;;;;5450518;27;20437;-80
2024/05/03 05:42:39;;;;;;;14.02;7.97;;;;;;;;;;5446664;27;19998;-79
2024/05/03 05:45:10;;;;;;;16.35;7.72;;;;;;;;;;5464267;27;20002;-80
2024/05/03 05:47:40;;;;;;;16.67;7.70;;;;;;;;;;5463515;27;19995;-80
2024/05/03 05:50:10;;;;;;;12.43;7.25;;;;;;;;;;5462630;27;20053;-81
2024/05/03 05:52:40;;;;;;;11.30;6.93;;;;;;;;;;5462421;27;20002;-80
2024/05/03 05:55:11;;;;;;;13.15;6.78;;;;;;;;;;5463074;27;19998;-80
2024/05/03 05:57:41;;;;;;;12.05;6.20;;;;;;;;;;5463914;27;20002;-81
2024/05/03 06:00:11;;;;;;;8.57;5.55;;;;;;;;;;5464234;27;20005;-81
2024/05/03 06:02:42;;;;;;;10.38;5.72;;;;;;;;;;5462934;27;20002;-81
2024/05/03 06:05:12;;;;;;;9.77;5.45;;;;;;;;;;5464480;27;20414;-80
2024/05/03 06:07:45;;;;;;;12.63;6.60;;;;;;;;;;5464183;27;20069;-81
2024/05/03 06:10:15;;;;;;;13.02;5.53;;;;;;;;;;5463153;27;20018;-79
2024/05/03 06:12:45;;;;;;;11.30;6.30;;;;;;;;;;5463122;27;20072;-81
2024/05/03 06:15:15;;;;;;;9.23;5.32;;;;;;;;;;5464354;27;19998;-82
2024/05/03 06:17:46;;;;;;;11.82;6.13;;;;;;;;;;5464133;27;20013;-82
2024/05/03 06:20:16;;;;;;;9.07;5.95;;;;;;;;;;5463436;27;19995;-82
2024/05/03 06:22:46;;;;;;;12.52;6.97;;;;;;;;;;5463527;27;20069;-81
2024/05/03 06:25:16;;;;;;;9.35;6.90;;;;;;;;;;5463929;27;20080;-82
2024/05/03 06:27:47;;;;;;;12.35;7.85;;;;;;;;;;5463683;27;20057;-82
2024/05/03 06:30:17;;;;;;;11.77;7.55;;;;;;;;;;5463471;27;20006;-82
2024/05/03 06:32:47;;;;;;;11.38;7.50;;;;;;;;;;5455156;27;20002;-81
2024/05/03 06:35:17;;;;;;;12.90;8.23;;;;;;;;;;5463963;27;20341;-81
2024/05/03 06:37:48;;;;;;;10.00;7.68;;;;;;;;;;5462919;27;20006;-81
2024/05/03 06:40:18;;;;;;;12.23;8.40;;;;;;;;;;5463659;27;19999;-82
2024/05/03 06:42:51;;;;;;;9.52;7.40;;;;;;;;;;5463169;27;19998;-82
2024/05/03 06:45:21;;;;;;;9.95;6.28;;;;;;;;;;5464087;27;20361;-81
2024/05/03 06:47:52;;;;;;;7.13;4.35;;;;;;;;;;5463138;27;20013;-82
2024/05/03 06:50:22;;;;;;;6.90;4.20;;;;;;;;;;5446695;27;20007;-80
2024/05/03 06:52:52;;;;;;;5.00;3.17;;;;;;;;;;5462978;27;19999;-82
2024/05/03 06:55:22;;;;;;;4.97;3.08;;;;;;;;;;5462688;27;20337;-81
2024/05/03 06:57:53;;;;;;;6.13;3.15;;;;;;;;;;5463391;27;20002;-82
2024/05/03 07:00:24;;;;;;;5.93;2.67;;;;;;;;;;5434745;27;20002;-81
2024/05/03 07:02:54;;;;;;;5.15;2.20;;;;;;;;;;5463021;27;20038;-82
2024/05/03 07:05:25;;;;;;;8.20;3.40;;;;;;;;;;5444942;27;20348;-82
2024/05/03 07:08:09;;;;;;;5.78;2.58;;;;;;;;;;5478607;22;20338;-82
2024/05/03 07:20:25;;;;;;;9.02;2.60;;;;;;;;;;5492468;22;20006;-82
2024/05/03 07:26:18;;;;;;;8.75;2.60;;;;;;;;;;5412620;27;20041;-82
2024/05/03 07:28:51;;;;;;;6.90;2.70;;;;;;;;;;5600040;21;20025;-82
2024/05/03 07:31:31;;;;;;;7.85;3.10;;;;;;;;;;5460570;27;20002;-82
2024/05/03 07:34:19;;;;;;;33.28;5.88;;;;;;;;;;5459586;27;19998;-82
2024/05/03 07:36:53;;;;;;;9.25;3.30;;;;;;;;;;5460112;27;20030;-82
2024/05/03 07:39:28;;;;;;;30.00;5.43;;;;;;;;;;5460796;27;20101;-82
2024/05/03 07:41:58;;;;;;;29.58;5.82;;;;;;;;;;5454178;27;20314;-84
2024/05/03 07:44:29;;;;;;;30.02;6.18;;;;;;;;;;5430497;27;20013;-83
2024/05/03 07:46:59;;;;;;;14.27;4.90;;;;;;;;;;5460403;27;20030;-82
2024/05/03 07:49:29;;;;;;;27.75;6.15;;;;;;;;;;5460342;27;19994;-82
2024/05/03 07:52:00;;;;;;;30.42;6.43;;;;;;;;;;5444998;27;20255;-82
2024/05/03 07:54:36;;;;;;;11.18;4.53;;;;;;;;;;5460409;27;20441;-82
2024/05/03 07:57:08;;;;;;;17.95;5.43;;;;;;;;;;5460667;27;20010;-82
2024/05/03 07:59:41;;;;;;;20.63;5.88;;;;;;;;;;5460774;27;20088;-82
2024/05/03 08:02:14;;;;;;;23.30;6.30;;;;;;;;;;5460427;27;20002;-83
2024/05/03 08:04:50;;;;;;;22.75;5.90;;;;;;;;;;5460365;27;20002;-83
2024/05/03 08:07:24;;;;;;;11.57;4.18;;;;;;;;;;5445729;27;20034;-83
2024/05/03 08:09:55;;;;;;;7.70;4.25;;;;;;;;;;5449977;27;20009;-82
2024/05/03 08:12:25;;;;;;;22.05;5.75;;;;;;;;;;5444096;27;20106;-83
2024/05/03 08:14:56;;;;;;;8.38;3.58;;;;;;;;;;5459760;27;20005;-82
2024/05/03 08:17:26;;;;;;;20.88;6.30;;;;;;;;;;5444400;27;20333;-82
2024/05/03 08:19:56;;;;;;;20.52;6.05;;;;;;;;;;5459819;27;20007;-82
2024/05/03 08:22:27;;;;;;;15.65;5.10;;;;;;;;;;5459927;27;20041;-82
2024/05/03 08:24:58;;;;;;;9.95;3.90;;;;;;;;;;5460244;27;20014;-82
2024/05/03 08:27:28;;;;;;;15.95;4.93;;;;;;;;;;5459928;27;20465;-82
2024/05/03 08:29:59;;;;;;;8.50;3.60;;;;;;;;;;5459358;27;20055;-82
2024/05/03 08:32:29;;;;;;;9.82;4.55;;;;;;;;;;5462111;27;20076;-82
2024/05/03 08:35:01;;;;;;;19.35;5.78;;;;;;;;;;5463446;27;19995;-82
2024/05/03 08:37:31;;;;;;;;;;;;;;;;;;5463328;27;20345;-82
2024/05/03 08:40:02;;;;;;;21.83;6.18;;;;;;;;;;5462946;27;20436;-82
2024/05/03 08:42:45;;;;;;;22.73;6.53;;;;;;;;;;5463179;27;20351;-82
2024/05/03 08:45:19;;;;;;;20.10;6.45;;;;;;;;;;5463622;27;20468;-82
2024/05/03 08:47:59;;;;;;;8.40;4.95;;;;;;;;;;5462625;27;20345;-82
2024/05/03 08:50:40;;;;;;;19.02;6.30;;;;;;;;;;5463189;27;20130;-83
2024/05/03 08:53:19;;;;;;;15.43;5.85;;;;;;;;;;5462403;27;20340;-82
2024/05/03 08:55:50;;;;;;;9.20;5.65;;;;;;;;;;5453884;27;20002;-82
2024/05/03 08:58:21;;;;;;;9.05;5.60;;;;;;;;;;5462655;27;20017;-83
2024/05/03 09:00:54;;;;;;;20.40;7.50;;;;;;;;;;5463019;27;20002;-83
2024/05/03 09:03:30;;;;;;;10.35;4.93;;;;;;;;;;5462524;27;20013;-82
2024/05/03 09:06:00;;;;;;;16.83;6.18;;;;;;;;;;5452425;27;20005;-83
2024/05/03 09:08:38;;;;;;;8.70;4.30;;;;;;;;;;5462813;27;20002;-82
2024/05/03 09:11:09;;;;;;;8.98;3.78;;;;;;;;;;5462476;27;19995;-83
2024/05/03 09:13:39;;;;;;;6.95;3.53;;;;;;;;;;5436186;27;20014;-83
2024/05/03 09:16:25;;;;;;;15.50;5.35;;;;;;;;;;5462359;27;20026;-83
2024/05/03 09:18:55;;;;;;;15.40;5.32;;;;;;;;;;5461751;27;20383;-83
2024/05/03 09:21:25;;;;;;;6.15;2.90;;;;;;;;;;5462541;27;20029;-82
2024/05/03 09:23:56;;;;;;;9.18;3.17;;;;;;;;;;5462535;27;20017;-82
2024/05/03 09:26:26;;;;;;;12.75;4.30;;;;;;;;;;5446731;27;20002;-82
2024/05/03 09:28:57;;;;;;;5.90;2.67;;;;;;;;;;5462572;27;20009;-81
2024/05/03 09:31:28;;;;;;;4.97;2.60;;;;;;;;;;5462437;27;19998;-82
2024/05/03 09:33:58;;;;;;;7.88;3.35;;;;;;;;;;5461971;27;20061;-82
2024/05/03 09:36:28;;;;;;;5.18;2.92;;;;;;;;;;5462176;27;20417;-82
2024/05/03 09:38:59;;;;;;;7.85;2.75;;;;;;;;;;5463039;27;19998;-81
2024/05/03 09:41:30;;;;;;;8.63;3.10;;;;;;;;;;5445509;27;20002;-81
2024/05/03 09:44:00;;;;;;;4.53;2.70;;;;;;;;;;5462031;27;20007;-82
2024/05/03 09:46:34;;;;;;;5.72;3.53;;;;;;;;;;5462745;27;20064;-81
2024/05/03 09:49:06;;;;;;;3.20;2.78;;;;;;;;;;5439025;27;20021;-81
2024/05/03 09:51:45;;;;;;;6.43;3.58;;;;;;;;;;5463113;27;20014;-81
2024/05/03 09:54:17;;;;;;;5.00;3.55;;;;;;;;;;5442837;27;20070;-81
2024/05/03 09:56:48;;;;;;;5.65;3.28;;;;;;;;;;5461956;27;19998;-82
2024/05/03 09:59:19;;;;;;;6.00;4.15;;;;;;;;;;5462876;27;20021;-82
2024/05/03 10:01:50;;;;;;;6.87;3.90;;;;;;;;;;5462608;27;20002;-81
2024/05/03 10:04:21;;;;;;;7.57;4.13;;;;;;;;;;5461808;27;20237;-81
2024/05/03 10:06:52;;;;;;;7.70;4.85;;;;;;;;;;5496196;21;20048;-79
2024/05/03 10:09:22;;;;;;;3.88;3.40;;;;;;;;;;5500340;27;20428;-79
2024/05/03 10:11:53;;;;;;;6.63;4.00;;;;;;;;;;5500007;27;20009;-79
2024/05/03 10:14:23;;;;;;;7.43;5.10;;;;;;;;;;5499232;27;20273;-79
2024/05/03 10:16:53;;;;;;;5.97;4.70;;;;;;;;;;5499557;26;20079;-79
2024/05/03 10:19:24;;;;;;;8.00;5.65;;;;;;;;;;5498890;27;19998;-79
2024/05/03 10:21:54;;;;;;;6.35;4.85;;;;;;;;;;5498883;27;19997;-79
2024/05/03 10:24:33;;;;;;;6.10;4.70;;;;;;;;;;5499002;27;20002;-79
2024/05/03 10:27:04;;;;;;;9.40;6.32;;;;;;;;;;5469218;27;20462;-79
2024/05/03 10:29:42;;;;;;;7.97;5.30;;;;;;;;;;5499350;27;20001;-80
2024/05/03 10:32:30;;;;;;;6.10;4.93;;;;;;;;;;5468108;27;20365;-79
2024/05/03 10:35:05;;;;;;;6.13;5.22;;;;;;;;;;5468954;27;20090;-79
2024/05/03 10:37:36;;;;;;;5.85;5.07;;;;;;;;;;5485796;26;20013;-79
2024/05/03 10:40:13;;;;;;;6.67;5.10;;;;;;;;;;5499482;27;20005;-79
2024/05/03 10:42:43;;;;;;;5.75;5.13;;;;;;;;;;5498719;27;20241;-79
2024/05/03 10:45:13;;;;;;;5.88;5.28;;;;;;;;;;5498731;27;20367;-79
2024/05/03 10:47:44;;;;;;;6.22;5.28;;;;;;;;;;5468525;27;20001;-79
2024/05/03 10:50:14;;;;;;;6.82;6.00;;;;;;;;;;5498430;27;20010;-79
2024/05/03 10:52:44;;;;;;;6.07;5.47;;;;;;;;;;5498291;27;20005;-79
2024/05/03 10:55:14;;;;;;;6.22;5.50;;;;;;;;;;5497404;27;20052;-79
2024/05/03 10:57:45;;;;;;;7.07;5.07;;;;;;;;;;5499752;26;20394;-79
2024/05/03 11:00:16;;;;;;;6.07;5.47;;;;;;;;;;5498520;27;19998;-79
2024/05/03 11:02:47;;;;;;;7.72;6.38;;;;;;;;;;5498501;27;20002;-79
2024/05/03 11:05:18;;;;;;;7.30;5.65;;;;;;;;;;5499439;27;20025;-79
2024/05/03 11:07:48;;;;;;;6.10;5.50;;;;;;;;;;5498879;26;20002;-79
2024/05/03 11:10:18;;;;;;;6.00;5.35;;;;;;;;;;5498001;27;20001;-79
2024/05/03 11:12:48;;;;;;;7.88;6.05;;;;;;;;;;5498631;27;19997;-79
2024/05/03 11:15:19;;;;;;;8.35;6.57;;;;;;;;;;5498680;27;19998;-79
2024/05/03 11:17:49;;;;;;;7.18;6.20;;;;;;;;;;5498694;26;20002;-79
2024/05/03 11:20:20;;;;;;;6.80;6.10;;;;;;;;;;5498360;27;20460;-79
2024/05/03 11:22:50;;;;;;;8.27;6.20;;;;;;;;;;5497995;27;20004;-79
2024/05/03 11:25:20;;;;;;;6.30;5.65;;;;;;;;;;5499189;27;20025;-79
2024/05/03 11:27:51;;;;;;;7.43;6.07;;;;;;;;;;5499017;26;19990;-79
2024/05/03 11:30:22;;;;;;;6.95;5.80;;;;;;;;;;5498433;27;20009;-79
2024/05/03 11:32:52;;;;;;;6.15;5.55;;;;;;;;;;5497630;27;20017;-79
2024/05/03 11:35:23;;;;;;;6.65;5.90;;;;;;;;;;5498035;27;20002;-79
2024/05/03 11:37:55;;;;;;;10.18;6.93;;;;;;;;;;5498093;26;20004;-79
2024/05/03 11:40:27;;;;;;;7.85;6.25;;;;;;;;;;5498093;27;20041;-79
2024/05/03 11:42:57;;;;;;;7.68;6.18;;;;;;;;;;5497066;27;20479;-79
2024/05/03 11:45:27;;;;;;;7.25;6.13;;;;;;;;;;5498521;27;20017;-79
2024/05/03 11:47:58;;;;;;;7.20;6.30;;;;;;;;;;5497949;26;19997;-79
2024/05/03 11:50:28;;;;;;;7.60;6.57;;;;;;;;;;5467990;27;20012;-79
2024/05/03 11:52:58;;;;;;;6.95;5.90;;;;;;;;;;5497369;27;19997;-79
2024/05/03 11:55:28;;;;;;;6.97;6.03;;;;;;;;;;5497941;27;20008;-78
2024/05/03 11:57:59;;;;;;;8.57;6.18;;;;;;;;;;5497374;26;20454;-78
2024/05/03 12:00:29;;;;;;;7.53;6.70;;;;;;;;;;5498510;27;20005;-79
2024/05/03 12:02:59;;;;;;;8.05;6.30;;;;;;;;;;5497586;27;20033;-79
2024/05/03 12:05:29;;;;;;;6.30;5.68;;;;;;;;;;5497604;27;20412;-79
2024/05/03 12:08:00;;;;;;;8.77;6.45;;;;;;;;;;5497518;26;19998;-79
2024/05/03 12:10:30;;;;;;;5.93;5.28;;;;;;;;;;5497083;27;20324;-79
2024/05/03 12:13:00;;;;;;;5.80;5.30;;;;;;;;;;5497131;27;20025;-79
2024/05/03 12:15:30;;;;;;;6.10;4.95;;;;;;;;;;5497337;27;20004;-79
2024/05/03 12:18:00;;;;;;;7.03;4.85;;;;;;;;;;5497484;26;20337;-79
2024/05/03 12:20:31;;;;;;;6.05;4.43;;;;;;;;;;5467233;27;20013;-79
2024/05/03 12:23:01;;;;;;;9.95;6.45;;;;;;;;;;5497059;27;20439;-79
2024/05/03 12:25:31;;;;;;;5.30;4.68;;;;;;;;;;5496572;27;20008;-80
2024/05/03 12:28:01;;;;;;;5.88;4.40;;;;;;;;;;5496468;26;20004;-79
2024/05/03 12:30:32;;;;;;;6.20;5.18;;;;;;;;;;5496027;27;20016;-79
2024/05/03 12:33:02;;;;;;;9.02;6.28;;;;;;;;;;5495649;27;20009;-79
2024/05/03 12:35:32;;;;;;;7.93;5.50;;;;;;;;;;5495662;27;19997;-79
2024/05/03 12:38:03;;;;;;;5.80;4.00;;;;;;;;;;5495821;26;20436;-78
2024/05/03 12:40:33;;;;;;;6.22;4.13;;;;;;;;;;5494565;27;22485;-78
2024/05/03 12:43:03;;;;;;;5.07;3.03;;;;;;;;;;5494016;27;19998;-79
2024/05/03 12:45:34;;;;;;;4.50;3.05;;;;;;;;;;5494247;27;20006;-79
2024/05/03 12:48:04;;;;;;;8.13;6.65;;;;;;;;;;5463361;27;20013;-80
2024/05/03 12:50:34;;;;;;;8.52;6.47;;;;;;;;;;5494357;27;20002;-79
2024/05/03 12:53:05;;;;;;;8.02;6.65;;;;;;;;;;5493627;27;20005;-80
2024/05/03 12:55:35;;;;;;;7.82;4.60;;;;;;;;;;5493735;27;20029;-80
2024/05/03 12:58:05;;;;;;;6.13;3.58;;;;;;;;;;5463489;27;20049;-80
2024/05/03 13:00:35;;;;;;;6.38;3.55;;;;;;;;;;5493763;27;20002;-80
2024/05/03 13:03:06;;;;;;;6.00;3.65;;;;;;;;;;5493436;27;20056;-81
2024/05/03 13:05:36;;;;;;;7.05;3.88;;;;;;;;;;5493763;27;19997;-81
2024/05/03 13:08:06;;;;;;;6.27;3.20;;;;;;;;;;5494096;26;20080;-81
2024/05/03 13:13:36;;;;;;;7.47;3.40;;;;;;;;;;5492411;27;20036;-81
2024/05/03 13:16:06;;;;;;;4.50;2.58;;;;;;;;;;5494061;27;20005;-82
2024/05/03 13:18:37;;;;;;;5.43;2.77;;;;;;;;;;5496568;26;20410;-82
2024/05/03 13:21:07;;;;;;;6.57;2.92;;;;;;;;;;5497055;27;19997;-82
2024/05/03 13:23:37;;;;;;;4.40;2.37;;;;;;;;;;5497497;27;20393;-83
2024/05/03 13:26:07;;;;;;;5.77;2.77;;;;;;;;;;5498234;27;20013;-82
2024/05/03 13:28:38;;;;;;;4.57;2.20;;;;;;;;;;5497071;26;20010;-82
2024/05/03 13:31:08;;;;;;;7.35;2.78;;;;;;;;;;5496978;27;19998;-83
2024/05/03 13:33:38;;;;;;;5.03;2.40;;;;;;;;;;5496544;27;20016;-83
2024/05/03 13:36:08;;;;;;;6.57;2.63;;;;;;;;;;5497032;27;20318;-82
2024/05/03 13:38:39;;;;;;;6.90;2.53;;;;;;;;;;5496300;26;20007;-82
2024/05/03 13:41:09;;;;;;;7.53;2.30;;;;;;;;;;5497023;27;20356;-83
2024/05/03 13:43:39;;;;;;;6.63;2.60;;;;;;;;;;5495332;27;20005;-83
2024/05/03 13:46:10;;;;;;;3.80;2.35;;;;;;;;;;5497784;27;19994;-83
2024/05/03 13:48:40;;;;;;;8.25;2.53;;;;;;;;;;5496359;26;20017;-82
2024/05/03 13:51:10;;;;;;;6.90;2.53;;;;;;;;;;5496885;27;20010;-83
2024/05/03 13:53:40;;;;;;;5.60;2.70;;;;;;;;;;5496036;27;20015;-83
2024/05/03 13:56:11;;;;;;;8.67;2.97;;;;;;;;;;5496484;27;19997;-83
2024/05/03 13:58:41;;;;;;;12.38;3.40;;;;;;;;;;5496179;26;20017;-83
2024/05/03 14:01:11;;;;;;;5.72;2.58;;;;;;;;;;5466000;27;20017;-83
2024/05/03 14:03:41;;;;;;;7.00;3.30;;;;;;;;;;5464905;27;20009;-83
2024/05/03 14:06:12;;;;;;;4.80;2.90;;;;;;;;;;5496153;27;19997;-83
2024/05/03 14:08:42;;;;;;;6.68;3.33;;;;;;;;;;5496140;26;20009;-83
2024/05/03 14:11:12;;;;;;;11.10;3.57;;;;;;;;;;5496264;27;20451;-83
2024/05/03 14:13:42;;;;;;;7.28;2.80;;;;;;;;;;5496281;27;20463;-83
2024/05/03 14:16:13;;;;;;;7.83;2.87;;;;;;;;;;5497787;27;19998;-83
2024/05/03 14:18:43;;;;;;;9.73;2.63;;;;;;;;;;5497114;26;20002;-83
2024/05/03 14:21:13;;;;;;;8.83;2.77;;;;;;;;;;5497337;27;19997;-83
2024/05/03 14:23:43;;;;;;;12.10;2.80;;;;;;;;;;5496903;27;19994;-83
2024/05/03 14:26:14;;;;;;;8.65;3.00;;;;;;;;;;5497236;27;20007;-83
2024/05/03 14:28:44;;;;;;;9.70;2.60;;;;;;;;;;5497658;26;19998;-84
2024/05/03 14:31:14;;;;;;;5.27;2.43;;;;;;;;;;5498075;27;20001;-84
2024/05/03 14:33:44;;;;;;;10.53;2.63;;;;;;;;;;5466585;27;20019;-83
2024/05/03 14:36:15;;;;;;;7.60;2.53;;;;;;;;;;5497560;27;20012;-84
2024/05/03 14:38:45;;;;;;;9.67;2.53;;;;;;;;;;5498035;26;19994;-84
2024/05/03 14:41:15;;;;;;;11.00;2.90;;;;;;;;;;5497458;27;20463;-84
2024/05/03 14:43:45;;;;;;;7.27;2.43;;;;;;;;;;5496316;27;19990;-84
2024/05/03 14:46:16;;;;;;;10.23;2.80;;;;;;;;;;5497729;27;20012;-84
2024/05/03 14:48:46;;;;;;;11.80;2.60;;;;;;;;;;5497366;26;19990;-84
2024/05/03 14:51:16;;;;;;;7.90;2.60;;;;;;;;;;5498044;27;20071;-83
2024/05/03 14:53:47;;;;;;;10.17;2.57;;;;;;;;;;5497490;27;20004;-84
2024/05/03 14:56:18;;;;;;;10.55;2.90;;;;;;;;;;5496811;27;19997;-84
2024/05/03 14:58:48;;;;;;;8.53;2.60;;;;;;;;;;5497820;26;20072;-84
2024/05/03 15:01:18;;;;;;;10.40;2.10;;;;;;;;;;5497227;27;20010;-84
2024/05/03 15:03:48;;;;;;;8.03;2.13;;;;;;;;;;5496182;27;20072;-84
2024/05/03 15:06:19;;;;;;;8.20;1.83;;;;;;;;;;5496920;27;20032;-84
2024/05/03 15:08:49;;;;;;;3.30;1.70;;;;;;;;;;5497065;26;20049;-83